Oak Hammock Air Park

CAV9 · 曼尼托巴, 加拿大

罗盘
风向 的 风向 210°
风: 5 kt, 2 beaufort

添加一条跑道以查看侧风和逆风信息。

添置 跑道
0 1.000 2.000 3.000 4.000 5.000
没有云
METAR CYWG 071300Z 21005KT 12SM IC SKC M29/M32 A3045 RMK FROIN SLP350

METAR Oak Hammock Air Park - CAV9

Oak Hammock Air Park是,加拿大中的小机场。 视场标高为755 ft。 该领域的国际民航组织标志是CAV9.

这份报告是针对2022年12月7日 07:00, 当地时间在Winnipeg / James Armstrong Richardson International Airport进行的。

机场观察

风向为210°,速度为5 kt。

可见度为12 mi。

有没有云。 没有观察到天花板。

当前天气为冰晶。 温度为-29 °C,阵风为-41 °C。 露点为-32 °C,相对湿度为75%。 海平面上的气压为30,45 inHg (QNH)。

白天

今天,太阳从08:13升起,在16:26降落。 这适用于Oak Hammock Air Park,世界夏令时可能有所不同。 当地时间与世界标准时间之间的时差为-6 小时。 当前,没有夏令时有效。

公司介绍

我们没有关于这个机场的公司信息。

体会

到Vliegles.nl去找飞行课程,跳伞和其他飞行体验。 浏览页面,了解Oak Hammock Air Park附近所有可用的活动。 你也可以使用搜索功能来寻找你所在地附近的特定飞行课程、跳伞或其他飞行体验。

乌云

- SKC 没有云

温度 & 天气

天气 冰晶
温度 -29 °C
露点 -32 °C
相对湿度 75%
风寒 -41 °C
Kp-index 5 (0-9)

评论

SLP350海平面压力为30,56 inHg (30,56 inHg)
FROIN

白天

日出
08:12 (38m)
中午
12:20
日落
16:28

小工具

你想在你的网站上有一个关于Oak Hammock Air Park的当前航空天气(METAR)的小部件吗?

显示HTML代码

我们和第三方通过cookies跟踪您在我们网站上的互联网行为。如果你继续,我们认为你同意我们的饼干政策